createdAt,value
2023-04-10T00:01:53.402Z,95.51
2023-04-10T00:04:24.104Z,95.44
2023-04-10T00:06:53.735Z,95.50
2023-04-10T00:09:23.171Z,95.51
2023-04-10T00:11:53.579Z,95.53
2023-04-10T00:14:22.925Z,95.63
2023-04-10T00:16:55.229Z,95.76
2023-04-10T00:19:24.718Z,95.58
2023-04-10T00:21:53.975Z,95.65
2023-04-10T00:24:24.647Z,95.66
2023-04-10T00:26:57.131Z,95.70
2023-04-10T00:29:27.010Z,95.72
2023-04-10T00:31:58.511Z,95.69
2023-04-10T00:34:27.488Z,95.70
2023-04-10T00:36:57.056Z,95.76
2023-04-10T00:39:27.691Z,95.84
2023-04-10T00:41:59.045Z,95.83
2023-04-10T00:44:28.778Z,96.03
2023-04-10T00:46:58.173Z,96.04
2023-04-10T00:49:27.571Z,96.15
2023-04-10T00:51:58.341Z,96.10
2023-04-10T00:54:29.038Z,96.18
2023-04-10T00:56:58.916Z,95.97
2023-04-10T00:59:28.091Z,95.99
2023-04-10T01:01:57.661Z,96.07
2023-04-10T01:04:28.740Z,96.15
2023-04-10T01:07:19.755Z,96.26
2023-04-10T01:10:11.839Z,96.37
2023-04-10T01:13:20.985Z,96.43
2023-04-10T01:16:18.366Z,96.61
2023-04-10T01:19:17.040Z,96.77
2023-04-10T01:21:45.985Z,97.00
2023-04-10T01:24:37.146Z,97.00
2023-04-10T01:27:35.128Z,96.78
2023-04-10T01:30:06.558Z,96.86
2023-04-10T01:32:37.093Z,97.09
2023-04-10T01:35:07.855Z,97.19
2023-04-10T01:37:43.634Z,97.39
2023-04-10T01:40:15.347Z,97.46
2023-04-10T01:42:56.071Z,97.61
2023-04-10T01:45:28.918Z,97.85
2023-04-10T01:47:57.887Z,97.84
2023-04-10T01:50:28.467Z,98.02
2023-04-10T01:52:57.253Z,98.05
2023-04-10T01:55:29.187Z,98.11
2023-04-10T01:58:01.278Z,98.12
2023-04-10T02:00:41.937Z,98.17
2023-04-10T02:03:12.601Z,98.30
2023-04-10T02:06:17.767Z,98.49
2023-04-10T02:08:55.866Z,98.70
2023-04-10T02:11:58.181Z,98.87
2023-04-10T02:14:31.766Z,99.01
2023-04-10T02:17:01.243Z,99.20
2023-04-10T02:19:32.051Z,99.29
2023-04-10T02:22:04.063Z,99.44
2023-04-10T02:24:35.334Z,99.55
2023-04-10T02:27:04.633Z,99.65
2023-04-10T02:29:35.679Z,99.77
2023-04-10T02:32:06.116Z,99.98
2023-04-10T02:34:35.028Z,99.98
2023-04-10T02:37:05.439Z,100.00
2023-04-10T02:39:34.840Z,99.98
2023-04-10T02:42:04.242Z,100.00
2023-04-10T02:44:33.892Z,100.00
2023-04-10T02:47:03.349Z,100.00
2023-04-10T02:49:34.912Z,100.00
2023-04-10T02:52:07.947Z,100.00
2023-04-10T02:54:39.961Z,100.00
2023-04-10T02:57:09.371Z,100.00
2023-04-10T02:59:39.811Z,100.00
2023-04-10T03:02:09.270Z,100.00
2023-04-10T03:04:39.464Z,100.00
2023-04-10T03:07:09.015Z,100.00
2023-04-10T03:09:40.726Z,100.00
2023-04-10T03:12:10.395Z,100.00
2023-04-10T03:14:41.418Z,100.00
2023-04-10T03:17:12.285Z,100.00
2023-04-10T03:19:41.333Z,100.00
2023-04-10T03:22:11.275Z,100.00
2023-04-10T03:24:42.235Z,100.00
2023-04-10T03:27:12.831Z,100.00
2023-04-10T03:29:44.026Z,100.00
2023-04-10T03:32:13.061Z,100.00
2023-04-10T03:34:43.342Z,100.00
2023-04-10T03:37:12.566Z,100.00
2023-04-10T03:39:43.172Z,100.00
2023-04-10T03:42:14.403Z,100.00
2023-04-10T03:44:43.928Z,100.00
2023-04-10T03:47:13.435Z,100.00
2023-04-10T03:49:46.343Z,100.00
2023-04-10T03:52:17.520Z,100.00
2023-04-10T03:54:46.817Z,100.00
2023-04-10T03:57:21.553Z,100.00
2023-04-10T03:59:52.022Z,100.00
2023-04-10T04:02:21.222Z,100.00
2023-04-10T04:04:50.861Z,100.00
2023-04-10T04:07:25.858Z,100.00
2023-04-10T04:10:00.487Z,100.00
2023-04-10T04:12:31.939Z,99.93
2023-04-10T04:15:03.860Z,99.85
2023-04-10T04:17:42.425Z,99.92
2023-04-10T04:20:13.099Z,99.97
2023-04-10T04:22:47.785Z,99.99
2023-04-10T04:25:35.917Z,99.98
2023-04-10T04:28:16.220Z,100.00
2023-04-10T04:30:47.720Z,99.66
2023-04-10T04:33:21.206Z,99.42
2023-04-10T04:36:05.388Z,99.40
2023-04-10T04:38:39.562Z,99.34
2023-04-10T04:41:29.480Z,99.28
2023-04-10T04:44:19.828Z,99.26
2023-04-10T04:47:03.442Z,98.94
2023-04-10T04:49:51.636Z,98.83
2023-04-10T04:52:34.800Z,98.84
2023-04-10T04:55:08.877Z,98.80
2023-04-10T04:57:50.541Z,98.69
2023-04-10T05:00:24.260Z,98.67
2023-04-10T05:02:57.821Z,98.65
2023-04-10T05:05:42.475Z,98.54
2023-04-10T05:08:20.619Z,98.52
2023-04-10T05:11:08.821Z,98.23
2023-04-10T05:13:42.932Z,98.05
2023-04-10T05:16:26.144Z,98.03
2023-04-10T05:19:10.663Z,97.45
2023-04-10T05:22:01.934Z,97.41
2023-04-10T05:24:44.755Z,97.22
2023-04-10T05:27:22.589Z,97.14
2023-04-10T05:30:11.269Z,97.00
2023-04-10T05:32:42.314Z,97.09
2023-04-10T05:35:31.150Z,97.06
2023-04-10T05:38:01.981Z,97.10
2023-04-10T05:40:48.262Z,97.12
2023-04-10T05:43:18.847Z,96.80
2023-04-10T05:45:55.825Z,96.49
2023-04-10T05:48:31.038Z,96.36
2023-04-10T05:51:09.767Z,96.28
2023-04-10T05:53:41.710Z,95.92
2023-04-10T05:56:15.446Z,95.72
2023-04-10T05:58:50.137Z,95.50
2023-04-10T06:01:21.520Z,95.20
2023-04-10T06:03:52.415Z,94.98
2023-04-10T06:06:22.229Z,94.86
2023-04-10T06:08:52.181Z,94.76
2023-04-10T06:11:21.555Z,94.67
2023-04-10T06:13:53.615Z,94.50
2023-04-10T06:16:25.851Z,94.42
2023-04-10T06:18:58.301Z,94.30
2023-04-10T06:21:27.484Z,94.30
2023-04-10T06:23:57.287Z,94.28
2023-04-10T06:26:26.935Z,94.04
2023-04-10T06:28:56.919Z,93.93
2023-04-10T06:31:28.116Z,93.83
2023-04-10T06:34:01.188Z,93.50
2023-04-10T06:36:31.378Z,93.42
2023-04-10T06:39:04.367Z,93.58
2023-04-10T06:41:34.104Z,93.72
2023-04-10T06:44:12.800Z,93.82
2023-04-10T06:46:42.488Z,93.79
2023-04-10T06:49:11.408Z,93.72
2023-04-10T06:51:41.134Z,93.70
2023-04-10T06:54:10.205Z,93.61
2023-04-10T06:56:39.602Z,93.38
2023-04-10T06:59:08.699Z,93.50
2023-04-10T07:01:37.757Z,93.76
2023-04-10T07:04:09.134Z,93.75
2023-04-10T07:06:39.711Z,93.75
2023-04-10T07:09:10.136Z,93.73
2023-04-10T07:11:39.430Z,94.06
2023-04-10T07:14:08.756Z,94.46
2023-04-10T07:16:37.921Z,94.99
2023-04-10T07:19:07.431Z,95.34
2023-04-10T07:21:36.921Z,95.89
2023-04-10T07:24:07.720Z,96.39
2023-04-10T07:26:36.707Z,96.78
2023-04-10T07:29:05.613Z,97.22
2023-04-10T07:31:35.838Z,97.61
2023-04-10T07:34:05.686Z,98.00
2023-04-10T07:36:34.608Z,98.22
2023-04-10T07:39:04.306Z,98.41
2023-04-10T07:41:33.216Z,98.46
2023-04-10T07:44:02.003Z,98.74
2023-04-10T07:46:31.127Z,98.96
2023-04-10T07:49:00.244Z,99.28
2023-04-10T07:51:29.795Z,99.52
2023-04-10T07:53:59.280Z,100.00
2023-04-10T07:56:31.388Z,100.00
2023-04-10T07:59:01.083Z,100.00
2023-04-10T08:01:30.133Z,100.00
2023-04-10T08:04:00.612Z,100.00
2023-04-10T08:06:32.518Z,100.00
2023-04-10T08:09:01.628Z,100.00
2023-04-10T08:11:37.395Z,100.00
2023-04-10T08:14:06.906Z,100.00
2023-04-10T08:16:38.911Z,100.00
2023-04-10T08:19:08.292Z,100.00
2023-04-10T08:21:37.682Z,100.00
2023-04-10T08:24:06.858Z,100.00
2023-04-10T08:26:35.561Z,100.00
2023-04-10T08:29:04.970Z,100.00
2023-04-10T08:31:34.457Z,100.00
2023-04-10T08:34:05.052Z,100.00
2023-04-10T08:36:35.803Z,100.00
2023-04-10T08:39:05.501Z,100.00
2023-04-10T08:41:36.129Z,100.00
2023-04-10T08:44:07.324Z,100.00
2023-04-10T08:46:37.828Z,100.00
2023-04-10T08:49:08.666Z,100.00
2023-04-10T08:51:59.015Z,100.00
2023-04-10T08:54:30.750Z,100.00
2023-04-10T08:57:01.132Z,100.00
2023-04-10T08:59:31.141Z,100.00
2023-04-10T09:02:01.651Z,100.00
2023-04-10T09:04:32.431Z,100.00
2023-04-10T09:07:02.031Z,100.00
2023-04-10T09:09:35.219Z,100.00
2023-04-10T09:12:06.746Z,100.00
2023-04-10T09:14:36.369Z,100.00
2023-04-10T09:17:23.591Z,100.00
2023-04-10T09:19:55.319Z,100.00
2023-04-10T09:22:35.080Z,100.00
2023-04-10T09:25:07.136Z,100.00
2023-04-10T09:27:37.373Z,100.00
2023-04-10T09:30:08.225Z,100.00
2023-04-10T09:32:44.003Z,100.00
2023-04-10T09:35:15.462Z,100.00
2023-04-10T09:37:47.588Z,100.00
2023-04-10T09:40:24.442Z,100.00
2023-04-10T09:42:55.886Z,100.00
2023-04-10T09:45:24.736Z,100.00
2023-04-10T09:48:08.612Z,100.00
2023-04-10T09:50:40.739Z,100.00
2023-04-10T09:53:21.628Z,100.00
2023-04-10T09:55:50.968Z,100.00
2023-04-10T09:58:20.643Z,100.00
2023-04-10T10:00:59.151Z,100.00
2023-04-10T10:03:29.378Z,100.00
2023-04-10T10:05:58.625Z,100.00
2023-04-10T10:08:28.694Z,100.00
2023-04-10T10:10:59.479Z,99.81
2023-04-10T10:13:45.748Z,99.63
2023-04-10T10:16:27.428Z,98.97
2023-04-10T10:19:08.318Z,99.18
2023-04-10T10:21:38.384Z,98.69
2023-04-10T10:24:09.255Z,98.21
2023-04-10T10:26:40.005Z,96.96
2023-04-10T10:29:14.510Z,95.78
2023-04-10T10:31:45.312Z,95.22
2023-04-10T10:34:14.119Z,93.69
2023-04-10T10:36:42.689Z,92.62
2023-04-10T10:40:04.726Z,92.58
2023-04-10T10:42:43.002Z,92.40
2023-04-10T10:45:40.430Z,91.68
2023-04-10T10:48:16.092Z,89.22
2023-04-10T10:51:00.973Z,89.34
2023-04-10T10:53:34.487Z,89.60
2023-04-10T10:56:26.907Z,88.80
2023-04-10T10:59:01.845Z,88.05
2023-04-10T11:01:32.736Z,88.23
2023-04-10T11:04:05.532Z,88.03
2023-04-10T11:06:52.214Z,86.69
2023-04-10T11:09:53.141Z,86.26
2023-04-10T11:12:30.242Z,85.33
2023-04-10T11:15:05.108Z,85.37
2023-04-10T11:17:52.472Z,84.27
2023-04-10T11:20:24.704Z,83.89
2023-04-10T11:23:16.755Z,83.20
2023-04-10T11:25:54.374Z,81.91
2023-04-10T11:28:40.272Z,82.07
2023-04-10T11:31:23.154Z,81.96
2023-04-10T11:34:04.188Z,79.95
2023-04-10T11:36:43.868Z,79.40
2023-04-10T11:39:14.096Z,79.53
2023-04-10T11:41:45.639Z,80.38
2023-04-10T11:44:19.991Z,78.70
2023-04-10T11:46:50.447Z,78.73
2023-04-10T11:49:26.239Z,78.43
2023-04-10T11:51:55.151Z,77.20
2023-04-10T11:54:28.023Z,77.43
2023-04-10T11:57:03.382Z,77.46
2023-04-10T11:59:33.942Z,77.74
2023-04-10T12:02:07.869Z,78.28
2023-04-10T12:04:37.489Z,78.61
2023-04-10T12:07:10.219Z,78.45
2023-04-10T12:09:39.193Z,77.93
2023-04-10T12:12:10.859Z,78.66
2023-04-10T12:14:42.922Z,79.57
2023-04-10T12:17:13.130Z,80.65
2023-04-10T12:19:43.687Z,81.59
2023-04-10T12:22:15.105Z,82.23
2023-04-10T12:24:51.914Z,82.73
2023-04-10T12:27:28.537Z,82.55
2023-04-10T12:29:58.498Z,83.14
2023-04-10T12:32:27.830Z,84.18
2023-04-10T12:34:58.657Z,84.46
2023-04-10T12:37:54.400Z,84.07
2023-04-10T12:40:26.882Z,83.79
2023-04-10T12:42:56.181Z,83.29
2023-04-10T12:45:44.131Z,83.27
2023-04-10T12:48:13.312Z,82.27
2023-04-10T12:50:49.875Z,82.87
2023-04-10T12:53:19.645Z,83.57
2023-04-10T12:56:02.438Z,84.13
2023-04-10T12:58:33.519Z,84.77
2023-04-10T13:01:07.018Z,84.95
2023-04-10T13:03:38.480Z,84.76
2023-04-10T13:06:09.000Z,86.07
2023-04-10T13:08:38.807Z,86.03
2023-04-10T13:11:09.949Z,84.30
2023-04-10T13:13:39.903Z,84.14
2023-04-10T13:16:12.067Z,84.90
2023-04-10T13:18:40.969Z,85.52
2023-04-10T13:21:10.951Z,86.31
2023-04-10T13:23:42.497Z,86.67
2023-04-10T13:26:11.530Z,87.01
2023-04-10T13:28:41.522Z,87.38
2023-04-10T13:31:10.668Z,87.94
2023-04-10T13:33:39.247Z,88.14
2023-04-10T13:36:09.789Z,88.71
2023-04-10T13:38:38.864Z,89.14
2023-04-10T13:41:08.985Z,89.42
2023-04-10T13:43:38.675Z,89.21
2023-04-10T13:46:08.026Z,88.67
2023-04-10T13:48:41.390Z,88.27
2023-04-10T13:51:10.236Z,87.67
2023-04-10T13:53:42.314Z,87.54
2023-04-10T13:56:12.759Z,87.45
2023-04-10T13:58:42.173Z,86.96
2023-04-10T14:01:13.508Z,86.77
2023-04-10T14:03:43.757Z,86.68
2023-04-10T14:06:14.423Z,86.43
2023-04-10T14:08:44.352Z,85.63
2023-04-10T14:11:13.217Z,85.25
2023-04-10T14:13:42.612Z,85.44
2023-04-10T14:16:12.236Z,85.80
2023-04-10T14:18:41.426Z,86.71
2023-04-10T14:21:12.919Z,88.04
2023-04-10T14:23:43.880Z,88.15
2023-04-10T14:26:13.917Z,88.06
2023-04-10T14:28:46.053Z,87.16
2023-04-10T14:31:15.230Z,85.53
2023-04-10T14:33:44.624Z,83.66
2023-04-10T14:36:14.914Z,83.96
2023-04-10T14:38:44.073Z,83.76
2023-04-10T14:41:14.616Z,83.83
2023-04-10T14:43:44.777Z,83.16
2023-04-10T14:46:15.167Z,83.15
2023-04-10T14:48:44.255Z,82.93
2023-04-10T14:51:15.106Z,82.75
2023-04-10T14:53:46.107Z,82.49
2023-04-10T14:56:15.918Z,82.09
2023-04-10T14:58:46.972Z,79.69
2023-04-10T15:01:17.425Z,78.90
2023-04-10T15:03:51.085Z,77.66
2023-04-10T15:06:21.580Z,76.75
2023-04-10T15:08:50.646Z,77.27
2023-04-10T15:11:21.315Z,77.49
2023-04-10T15:13:52.113Z,77.04
2023-04-10T15:16:22.183Z,76.94
2023-04-10T15:18:53.406Z,76.31
2023-04-10T15:21:27.458Z,76.13
2023-04-10T15:23:58.868Z,76.16
2023-04-10T15:26:29.423Z,75.83
2023-04-10T15:28:59.731Z,74.63
2023-04-10T15:31:29.874Z,73.56
2023-04-10T15:33:59.266Z,73.49
2023-04-10T15:36:28.886Z,73.27
2023-04-10T15:39:03.251Z,72.81
2023-04-10T15:41:34.194Z,72.75
2023-04-10T15:44:03.241Z,72.71
2023-04-10T15:46:34.273Z,73.56
2023-04-10T15:49:06.914Z,72.67
2023-04-10T15:51:36.307Z,72.78
2023-04-10T15:54:08.344Z,72.88
2023-04-10T15:56:38.130Z,72.36
2023-04-10T15:59:08.172Z,72.48
2023-04-10T16:01:38.516Z,71.74
2023-04-10T16:04:09.929Z,72.34
2023-04-10T16:06:40.750Z,72.61
2023-04-10T16:09:24.306Z,73.36
2023-04-10T16:11:42.432Z,73.56
2023-04-10T16:14:12.287Z,73.83
2023-04-10T16:16:43.762Z,74.28
2023-04-10T16:19:14.306Z,74.56
2023-04-10T16:21:43.584Z,75.48
2023-04-10T16:24:13.050Z,75.38
2023-04-10T16:26:43.520Z,75.25
2023-04-10T16:29:12.876Z,75.45
2023-04-10T16:31:41.725Z,75.39
2023-04-10T16:34:10.635Z,75.80
2023-04-10T16:36:40.060Z,76.33
2023-04-10T16:39:10.888Z,76.43
2023-04-10T16:41:41.739Z,76.48
2023-04-10T16:44:10.715Z,76.92
2023-04-10T16:46:42.226Z,77.07
2023-04-10T16:49:11.149Z,77.42
2023-04-10T16:51:40.101Z,77.46
2023-04-10T16:54:08.941Z,77.56
2023-04-10T16:56:38.456Z,77.86
2023-04-10T16:59:10.186Z,78.08
2023-04-10T17:01:42.307Z,78.26
2023-04-10T17:04:11.419Z,78.62
2023-04-10T17:06:41.309Z,78.65
2023-04-10T17:09:10.242Z,79.11
2023-04-10T17:11:39.594Z,79.29
2023-04-10T17:14:10.091Z,79.61
2023-04-10T17:16:39.615Z,79.96
2023-04-10T17:19:09.860Z,80.09
2023-04-10T17:21:39.009Z,80.03
2023-04-10T17:24:10.612Z,80.19
2023-04-10T17:26:40.641Z,80.39
2023-04-10T17:29:09.753Z,80.73
2023-04-10T17:31:39.189Z,80.79
2023-04-10T17:34:09.408Z,81.03
2023-04-10T17:36:39.786Z,81.17
2023-04-10T17:39:09.082Z,81.36
2023-04-10T17:41:37.772Z,81.36
2023-04-10T17:44:07.996Z,81.39
2023-04-10T17:46:37.536Z,81.17
2023-04-10T17:49:08.076Z,80.82
2023-04-10T17:51:40.718Z,80.78
2023-04-10T17:54:10.479Z,80.84
2023-04-10T17:56:39.256Z,80.57
2023-04-10T17:59:10.163Z,80.56
2023-04-10T18:01:39.588Z,80.69
2023-04-10T18:04:09.449Z,80.84
2023-04-10T18:06:38.361Z,80.87
2023-04-10T18:09:07.297Z,80.91
2023-04-10T18:11:36.254Z,81.15
2023-04-10T18:14:07.940Z,81.45
2023-04-10T18:16:38.271Z,81.61
2023-04-10T18:19:07.162Z,81.74
2023-04-10T18:21:37.665Z,81.90
2023-04-10T18:24:07.879Z,82.23
2023-04-10T18:26:36.613Z,82.50
2023-04-10T18:29:05.594Z,82.46
2023-04-10T18:31:35.890Z,82.72
2023-04-10T18:34:08.285Z,82.89
2023-04-10T18:36:35.629Z,82.76
2023-04-10T18:39:05.066Z,82.74
2023-04-10T18:41:36.022Z,83.00
2023-04-10T18:44:06.124Z,83.30
2023-04-10T18:46:38.482Z,83.36
2023-04-10T18:49:09.073Z,83.34
2023-04-10T18:51:40.396Z,83.36
2023-04-10T18:54:09.853Z,83.52
2023-04-10T18:56:39.965Z,83.67
2023-04-10T18:59:10.482Z,83.79
2023-04-10T19:01:41.304Z,83.87
2023-04-10T19:04:12.002Z,83.98
2023-04-10T19:06:43.532Z,84.16
2023-04-10T19:09:13.294Z,84.23
2023-04-10T19:11:42.851Z,84.33
2023-04-10T19:14:13.387Z,84.40
2023-04-10T19:16:43.386Z,84.56
2023-04-10T19:19:12.278Z,84.77
2023-04-10T19:21:43.919Z,84.81
2023-04-10T19:24:13.340Z,84.74
2023-04-10T19:26:43.561Z,84.82
2023-04-10T19:29:14.195Z,84.88
2023-04-10T19:31:45.625Z,85.23
2023-04-10T19:34:16.178Z,85.30
2023-04-10T19:36:45.497Z,85.41
2023-04-10T19:39:14.270Z,85.59
2023-04-10T19:41:44.453Z,85.88
2023-04-10T19:44:14.636Z,86.02
2023-04-10T19:46:45.307Z,85.79
2023-04-10T19:49:16.394Z,85.78
2023-04-10T19:51:46.864Z,85.88
2023-04-10T19:54:16.494Z,84.87
2023-04-10T19:56:45.765Z,84.15
2023-04-10T19:59:16.567Z,83.70
2023-04-10T20:01:46.871Z,83.26
2023-04-10T20:04:16.556Z,82.74
2023-04-10T20:06:48.065Z,82.50
2023-04-10T20:09:18.179Z,82.17
2023-04-10T20:11:47.656Z,81.44
2023-04-10T20:14:19.353Z,81.01
2023-04-10T20:16:48.540Z,80.50
2023-04-10T20:19:17.402Z,80.36
2023-04-10T20:21:51.320Z,80.11
2023-04-10T20:24:20.666Z,79.74
2023-04-10T20:26:50.832Z,79.36
2023-04-10T20:29:20.888Z,79.17
2023-04-10T20:31:50.379Z,78.46
2023-04-10T20:34:19.428Z,78.08
2023-04-10T20:36:49.858Z,77.98
2023-04-10T20:39:19.638Z,77.79
2023-04-10T20:41:50.378Z,76.98
2023-04-10T20:44:20.994Z,76.82
2023-04-10T20:46:50.987Z,75.87
2023-04-10T20:49:19.819Z,75.35
2023-04-10T20:51:49.800Z,75.60
2023-04-10T20:54:19.078Z,75.69
2023-04-10T20:56:47.735Z,75.34
2023-04-10T20:59:17.838Z,75.55
2023-04-10T21:01:47.476Z,75.23
2023-04-10T21:04:16.747Z,75.07
2023-04-10T21:06:48.962Z,74.84
2023-04-10T21:09:17.737Z,74.62
2023-04-10T21:11:46.517Z,74.69
2023-04-10T21:14:17.141Z,74.73
2023-04-10T21:16:46.362Z,74.16
2023-04-10T21:19:17.266Z,74.08
2023-04-10T21:21:46.049Z,74.32
2023-04-10T21:24:18.096Z,74.30
2023-04-10T21:26:57.572Z,74.52
2023-04-10T21:29:26.553Z,74.50
2023-04-10T21:31:55.862Z,74.18
2023-04-10T21:34:26.385Z,74.35
2023-04-10T21:36:55.598Z,74.61
2023-04-10T21:39:25.544Z,74.34
2023-04-10T21:41:54.690Z,74.44
2023-04-10T21:44:23.699Z,74.51
2023-04-10T21:46:52.820Z,74.24
2023-04-10T21:49:21.888Z,73.80
2023-04-10T21:51:51.551Z,73.73
2023-04-10T21:54:21.339Z,73.87
2023-04-10T21:56:50.395Z,74.05
2023-04-10T21:59:19.302Z,74.25
2023-04-10T22:01:48.354Z,74.16
2023-04-10T22:04:17.238Z,74.05
2023-04-10T22:06:48.237Z,74.28
2023-04-10T22:09:17.750Z,74.07
2023-04-10T22:11:46.841Z,74.13
2023-04-10T22:14:19.384Z,74.21
2023-04-10T22:16:49.563Z,74.23
2023-04-10T22:19:19.806Z,74.25
2023-04-10T22:21:50.623Z,74.00
2023-04-10T22:24:19.710Z,74.12
2023-04-10T22:26:48.793Z,74.31
2023-04-10T22:29:18.091Z,74.29
2023-04-10T22:31:46.994Z,74.21
2023-04-10T22:34:15.965Z,73.99
2023-04-10T22:36:45.806Z,73.37
2023-04-10T22:39:15.417Z,73.21
2023-04-10T22:41:45.951Z,73.03
2023-04-10T22:44:15.166Z,73.03
2023-04-10T22:46:47.809Z,73.02
2023-04-10T22:49:17.138Z,72.94
2023-04-10T22:51:47.027Z,73.02
2023-04-10T22:54:17.371Z,72.62
2023-04-10T22:56:48.718Z,72.36
2023-04-10T22:59:20.488Z,71.77
2023-04-10T23:01:49.321Z,71.58
2023-04-10T23:04:18.196Z,71.71
2023-04-10T23:06:48.406Z,71.41
2023-04-10T23:09:17.266Z,71.64
2023-04-10T23:11:47.710Z,71.86
2023-04-10T23:14:17.816Z,71.64
2023-04-10T23:16:47.165Z,71.88
2023-04-10T23:19:18.796Z,71.97
2023-04-10T23:21:49.620Z,72.10
2023-04-10T23:24:18.810Z,72.31
2023-04-10T23:26:47.640Z,72.30
2023-04-10T23:29:19.673Z,72.29
2023-04-10T23:31:49.891Z,72.07
2023-04-10T23:34:21.474Z,71.97
2023-04-10T23:36:51.788Z,72.24
2023-04-10T23:39:22.723Z,72.35
2023-04-10T23:41:53.290Z,72.23
2023-04-10T23:44:22.350Z,72.40
2023-04-10T23:46:51.751Z,72.27
2023-04-10T23:49:20.662Z,72.16
2023-04-10T23:51:50.261Z,72.28
2023-04-10T23:54:20.498Z,72.30
2023-04-10T23:56:50.806Z,72.43
2023-04-10T23:59:21.014Z,72.32
